Time;durP1;ratioP1;P1;durP2;ratioP2;P2;SDS_P1;SDS_P2;PMS_P1;PMS_P2;Temp;Humidity;BMP_temperature;BMP_pressure;BME280_temperature;BME280_humidity;BME280_pressure;Samples;Min_cycle;Max_cycle;Signal;HPM_P1;HPM_P2
2023/10/14 00:04:42;;;;;;;14.70;9.60;;;;;;;9.96;100.00;101169.21;105811;1259;61669;-83
2023/10/14 00:07:17;;;;;;;14.40;10.60;;;;;;;9.99;100.00;101168.31;105958;1263;61100;-86
2023/10/14 00:09:49;;;;;;;16.90;10.30;;;;;;;10.07;100.00;101163.71;106451;1260;74741;-86
2023/10/14 00:12:19;;;;;;;15.00;9.60;;;;;;;10.09;100.00;101160.39;105839;1259;67568;-85
2023/10/14 00:14:53;;;;;;;14.80;10.00;;;;;;;10.10;100.00;101157.94;105924;1263;71368;-83
2023/10/14 00:17:21;;;;;;;14.30;10.00;;;;;;;10.03;100.00;101158.20;105751;1259;62190;-83
2023/10/14 00:19:50;;;;;;;13.90;9.90;;;;;;;9.98;100.00;101155.58;105793;1260;61253;-83
2023/10/14 00:22:18;;;;;;;14.50;9.20;;;;;;;9.95;100.00;101154.30;106415;1259;73508;-86
2023/10/14 00:24:48;;;;;;;16.70;9.80;;;;;;;9.89;100.00;101154.34;106219;1259;67174;-86
2023/10/14 00:27:17;;;;;;;17.60;10.80;;;;;;;9.81;100.00;101160.94;105734;1264;71359;-83
2023/10/14 00:29:45;;;;;;;14.70;9.90;;;;;;;9.72;100.00;101156.63;105747;1261;61259;-83
2023/10/14 00:32:12;;;;;;;14.40;9.50;;;;;;;9.71;100.00;101158.09;105763;1259;61369;-83
2023/10/14 00:34:42;;;;;;;14.20;9.60;;;;;;;9.73;100.00;101160.13;106366;1260;74670;-83
2023/10/14 00:37:10;;;;;;;17.20;9.90;;;;;;;9.70;100.00;101162.51;105723;1260;68785;-86
2023/10/14 00:39:38;;;;;;;16.80;9.60;;;;;;;9.64;100.00;101162.59;105818;1263;71809;-86
2023/10/14 00:42:08;;;;;;;16.30;10.00;;;;;;;9.58;100.00;101162.41;105781;1261;61287;-86
2023/10/14 00:44:39;;;;;;;17.10;9.50;;;;;;;9.53;100.00;101164.02;105971;1259;61432;-86
2023/10/14 00:47:15;;;;;;;17.70;9.40;;;;;;;9.47;100.00;101162.13;105869;1260;73495;-85
2023/10/14 00:49:43;;;;;;;18.20;11.20;;;;;;;9.42;100.00;101166.82;106624;1260;68409;-84
2023/10/14 00:52:18;;;;;;;16.00;10.30;;;;;;;9.41;100.00;101167.83;105745;1259;72466;-86
2023/10/14 00:57:21;;;;;;;15.80;9.90;;;;;;;9.43;100.00;101157.45;105784;1259;61317;-83
2023/10/14 00:59:50;;;;;;;16.70;9.70;;;;;;;9.40;100.00;101163.36;105716;1265;74589;-86
2023/10/14 01:02:31;;;;;;;15.00;9.90;;;;;;;9.36;100.00;101159.98;106485;1262;68385;-86
2023/10/14 01:05:10;;;;;;;16.90;10.80;;;;;;;9.34;100.00;101152.76;105831;1260;72628;-86
2023/10/14 01:07:39;;;;;;;15.40;10.20;;;;;;;9.25;100.00;101151.00;105734;1261;61379;-83
2023/10/14 01:10:12;;;;;;;17.20;10.60;;;;;;;9.14;100.00;101145.61;105762;1260;61311;-86
2023/10/14 01:12:44;;;;;;;14.90;9.20;;;;;;;9.14;100.00;101146.70;105995;1263;73718;-83
2023/10/14 01:15:20;;;;;;;14.90;8.80;;;;;;;9.02;100.00;101142.04;106318;1259;68727;-87
2023/10/14 01:17:53;;;;;;;20.60;12.10;;;;;;;9.05;100.00;101142.02;105845;1259;72852;-83
2023/10/14 01:22:58;;;;;;;19.90;10.50;;;;;;;9.00;100.00;101142.66;106011;1259;61241;-83
2023/10/14 01:25:30;;;;;;;17.10;11.10;;;;;;;8.97;100.00;101143.98;105800;1259;73454;-84
2023/10/14 01:27:59;;;;;;;16.90;11.10;;;;;;;8.93;100.00;101143.70;106583;1264;67788;-84
2023/10/14 01:30:32;;;;;;;17.00;10.50;;;;;;;8.89;100.00;101141.59;105874;1262;73157;-87
2023/10/14 01:33:13;;;;;;;15.00;9.60;;;;;;;8.79;100.00;101143.02;105927;1263;61285;-83
2023/10/14 01:35:42;;;;;;;16.30;9.70;;;;;;;8.76;100.00;101141.83;105799;1264;61367;-86
2023/10/14 01:38:10;;;;;;;17.70;10.10;;;;;;;8.83;100.00;101142.59;106940;1259;73379;-84
2023/10/14 01:40:43;;;;;;;18.80;11.20;;;;;;;8.79;100.00;101144.71;105864;1260;67271;-83
2023/10/14 01:43:11;;;;;;;16.50;11.30;;;;;;;8.84;100.00;101144.66;105769;1259;74950;-83
2023/10/14 01:45:40;;;;;;;18.10;10.30;;;;;;;8.90;100.00;101151.64;105980;1259;61383;-84
2023/10/14 01:50:46;;;;;;;14.80;9.30;;;;;;;8.91;100.00;101149.13;105846;1259;74664;-86
2023/10/14 01:53:18;;;;;;;14.60;9.70;;;;;;;8.98;100.00;101148.24;106776;1260;68428;-84
2023/10/14 01:55:47;;;;;;;12.20;8.60;;;;;;;8.84;100.00;101145.70;105805;1261;72693;-86
2023/10/14 01:58:37;;;;;;;14.80;9.20;;;;;;;8.80;100.00;101144.56;105782;1259;61397;-83
2023/10/14 02:01:05;;;;;;;15.30;9.20;;;;;;;8.72;100.00;101140.02;105996;1259;61258;-83
2023/10/14 02:03:35;;;;;;;15.40;9.60;;;;;;;8.73;100.00;101138.52;106055;1261;73441;-83
2023/10/14 02:06:10;;;;;;;13.00;8.70;;;;;;;8.74;100.00;101138.52;105951;1264;69393;-86
2023/10/14 02:08:38;;;;;;;12.60;8.40;;;;;;;8.76;100.00;101142.20;105835;1259;73159;-84
2023/10/14 02:11:06;;;;;;;15.70;9.40;;;;;;;8.72;100.00;101137.56;105839;1262;61277;-84
2023/10/14 02:13:36;;;;;;;13.40;9.10;;;;;;;8.65;100.00;101137.25;105896;1259;61162;-86
2023/10/14 02:16:07;;;;;;;15.60;8.50;;;;;;;8.64;100.00;101141.11;106755;1260;73956;-86
2023/10/14 02:18:38;;;;;;;12.20;8.20;;;;;;;8.62;100.00;101140.92;105870;1261;68564;-84
2023/10/14 02:21:11;;;;;;;15.40;9.60;;;;;;;8.62;100.00;101135.36;105774;1259;72702;-83
2023/10/14 02:23:46;;;;;;;17.00;9.60;;;;;;;8.57;100.00;101135.39;105799;1262;61484;-86
2023/10/14 02:26:22;;;;;;;17.40;10.50;;;;;;;8.63;100.00;101129.55;105751;1260;61370;-86
2023/10/14 02:28:52;;;;;;;17.40;9.80;;;;;;;8.69;100.00;101123.02;105969;1264;74616;-85
2023/10/14 02:33:56;;;;;;;17.00;10.80;;;;;;;8.66;100.00;101116.02;105577;1266;72640;-87
2023/10/14 02:36:34;;;;;;;17.90;9.80;;;;;;;8.61;100.00;101117.27;105834;1261;61843;-86
2023/10/14 02:39:12;;;;;;;16.90;9.90;;;;;;;8.56;100.00;101124.11;105857;1259;61334;-83
2023/10/14 02:41:40;;;;;;;13.90;8.80;;;;;;;8.50;100.00;101125.30;105769;1260;76510;-83
2023/10/14 02:46:42;;;;;;;14.50;9.20;;;;;;;8.26;100.00;101123.42;105750;1259;73053;-84
2023/10/14 02:49:14;;;;;;;13.80;9.10;;;;;;;8.24;100.00;101125.09;105785;1260;61413;-86
2023/10/14 02:51:43;;;;;;;14.30;9.20;;;;;;;8.24;100.00;101127.87;105815;1259;61436;-83
2023/10/14 02:54:33;;;;;;;15.30;8.90;;;;;;;8.20;100.00;101128.34;105824;1264;74696;-86
2023/10/14 02:57:12;;;;;;;15.70;9.40;;;;;;;8.07;100.00;101126.33;106642;1259;67944;-83
2023/10/14 02:59:44;;;;;;;17.90;10.10;;;;;;;8.09;100.00;101124.52;105794;1260;72392;-83
2023/10/14 03:07:28;;;;;;;15.80;9.50;;;;;;;8.13;100.00;101117.14;105802;1259;74593;-83
2023/10/14 03:10:10;;;;;;;18.90;10.10;;;;;;;8.14;100.00;101115.02;106132;1259;67124;-83
2023/10/14 03:12:39;;;;;;;14.80;9.40;;;;;;;8.14;100.00;101111.38;105994;1259;71053;-83
2023/10/14 03:15:19;;;;;;;17.40;8.90;;;;;;;8.07;100.00;101107.08;105955;1259;61432;-83
2023/10/14 03:17:56;;;;;;;22.10;9.60;;;;;;;8.04;100.00;101099.49;105974;1258;61196;-86
2023/10/14 03:23:11;;;;;;;17.30;9.00;;;;;;;8.05;100.00;101087.21;106822;1259;68819;-83
2023/10/14 03:25:44;;;;;;;17.50;9.20;;;;;;;8.02;100.00;101084.98;105897;1263;71460;-83
2023/10/14 03:28:13;;;;;;;13.70;8.00;;;;;;;7.99;100.00;101087.13;105509;1267;61311;-83
2023/10/14 03:30:46;;;;;;;16.50;8.50;;;;;;;7.96;100.00;101078.63;105758;1259;61408;-82
2023/10/14 03:33:19;;;;;;;17.60;9.20;;;;;;;7.90;100.00;101076.34;106040;1260;73498;-85
2023/10/14 03:35:56;;;;;;;18.30;8.90;;;;;;;7.92;100.00;101073.17;106768;1259;67613;-85
2023/10/14 03:38:25;;;;;;;14.80;8.70;;;;;;;7.91;100.00;101077.57;105881;1261;70896;-86
2023/10/14 03:41:03;;;;;;;14.30;8.50;;;;;;;7.93;100.00;101069.48;105826;1261;61244;-86
2023/10/14 03:43:31;;;;;;;12.90;8.00;;;;;;;7.91;100.00;101066.67;105810;1259;61267;-86
2023/10/14 03:46:10;;;;;;;19.70;10.20;;;;;;;7.83;100.00;101064.85;105740;1259;73498;-85
2023/10/14 03:48:48;;;;;;;18.70;9.20;;;;;;;7.83;100.00;101064.80;106299;1259;68727;-85
2023/10/14 03:51:27;;;;;;;14.70;8.10;;;;;;;7.80;100.00;101069.76;105858;1264;71418;-83
2023/10/14 03:53:56;;;;;;;15.60;8.50;;;;;;;7.84;100.00;101069.83;105882;1263;61402;-85
2023/10/14 03:56:27;;;;;;;13.00;7.90;;;;;;;7.82;100.00;101070.71;105955;1259;61304;-84
2023/10/14 03:58:57;;;;;;;14.60;8.40;;;;;;;7.82;100.00;101069.79;105802;1264;74660;-83
2023/10/14 04:01:42;;;;;;;14.80;8.40;;;;;;;7.80;100.00;101065.83;106686;1260;67352;-86
2023/10/14 04:04:17;;;;;;;12.20;7.30;;;;;;;7.91;100.00;101062.05;105857;1262;72389;-83
2023/10/14 04:06:55;;;;;;;13.80;7.80;;;;;;;7.88;100.00;101062.77;105935;1259;61376;-83
2023/10/14 04:09:24;;;;;;;14.10;8.30;;;;;;;7.89;100.00;101062.79;106185;1261;61293;-85
2023/10/14 04:11:52;;;;;;;11.70;7.50;;;;;;;7.97;100.00;101062.84;105985;1263;74638;-82
2023/10/14 04:14:22;;;;;;;14.30;8.20;;;;;;;8.05;100.00;101061.14;106932;1260;68465;-83
2023/10/14 04:17:08;;;;;;;15.00;7.20;;;;;;;8.14;100.00;101057.04;105801;1260;72688;-82
2023/10/14 04:19:47;;;;;;;13.70;8.60;;;;;;;8.21;100.00;101058.50;105773;1261;61373;-82
2023/10/14 04:22:38;;;;;;;14.80;9.30;;;;;;;8.28;100.00;101061.50;105882;1261;61273;-82
2023/10/14 04:35:33;;;;;;;14.30;8.30;;;;;;;8.46;100.00;101060.55;105918;1259;61149;-85
2023/10/14 04:38:17;;;;;;;12.20;8.00;;;;;;;8.51;100.00;101058.16;105829;1259;74682;-82
2023/10/14 04:40:53;;;;;;;19.90;9.20;;;;;;;8.60;100.00;101067.88;105913;1260;67168;-82
2023/10/14 04:44:11;;;;;;;15.80;9.60;;;;;;;8.67;100.00;101066.73;105818;1264;72612;-82
2023/10/14 04:47:01;;;;;;;15.40;8.90;;;;;;;8.80;100.00;101062.75;105746;1260;60716;-82
2023/10/14 04:50:21;;;;;;;13.30;8.20;;;;;;;8.91;100.00;101051.59;105819;1259;61397;-86
2023/10/14 04:53:33;;;;;;;15.00;7.90;;;;;;;9.00;100.00;101047.75;106621;1262;74670;-82
2023/10/14 04:56:41;;;;;;;15.80;9.90;;;;;;;9.18;100.00;101052.20;105814;1262;67248;-80
2023/10/14 04:59:55;;;;;;;16.90;10.00;;;;;;;9.36;100.00;101055.40;105966;1262;72790;-80
2023/10/14 05:03:09;;;;;;;17.10;10.00;;;;;;;9.67;100.00;101065.27;106181;1259;61380;-80
2023/10/14 05:06:29;;;;;;;20.80;11.60;;;;;;;10.03;100.00;101072.41;108060;1259;59150;-88
2023/10/14 05:09:49;;;;;;;16.50;10.30;;;;;;;10.41;100.00;101070.86;105801;1259;73475;-80
2023/10/14 05:13:09;;;;;;;17.40;10.40;;;;;;;10.72;100.00;101064.92;106046;1262;68750;-80
2023/10/14 05:16:26;;;;;;;17.10;11.00;;;;;;;11.01;100.00;101058.17;105802;1260;71051;-81
2023/10/14 05:19:44;;;;;;;18.10;11.40;;;;;;;11.47;100.00;101061.97;106497;1264;61293;-81
2023/10/14 05:22:59;;;;;;;16.90;11.00;;;;;;;11.94;100.00;101062.45;105804;1264;61293;-87
2023/10/14 05:26:14;;;;;;;18.30;11.60;;;;;;;12.50;100.00;101063.28;105753;1264;74681;-80
2023/10/14 05:29:22;;;;;;;27.10;15.80;;;;;;;13.05;100.00;101063.60;105724;1260;68560;-87
2023/10/14 05:32:36;;;;;;;21.40;14.70;;;;;;;13.45;100.00;101061.29;106348;1259;70663;-87
2023/10/14 05:35:51;;;;;;;19.70;13.60;;;;;;;13.70;100.00;101062.71;105693;1261;61306;-86
2023/10/14 05:39:06;;;;;;;18.00;10.10;;;;;;;14.05;100.00;101068.66;105797;1259;61305;-81
2023/10/14 05:42:24;;;;;;;15.60;10.40;;;;;;;14.35;100.00;101065.09;106520;1259;73418;-81
2023/10/14 05:45:39;;;;;;;13.80;8.60;;;;;;;14.63;100.00;101066.88;105729;1264;68501;-86
2023/10/14 05:48:53;;;;;;;16.00;8.50;;;;;;;14.85;100.00;101062.44;105795;1259;75609;-87
2023/10/14 05:52:08;;;;;;;11.50;8.40;;;;;;;15.11;100.00;101061.20;105781;1264;61705;-83
2023/10/14 05:55:20;;;;;;;12.00;8.90;;;;;;;15.45;100.00;101061.77;105965;1262;61342;-87
2023/10/14 05:58:36;;;;;;;11.70;8.40;;;;;;;15.79;100.00;101069.52;105831;1259;74723;-87
2023/10/14 06:01:51;;;;;;;13.10;8.30;;;;;;;16.09;100.00;101069.75;106007;1259;68288;-86
2023/10/14 06:05:06;;;;;;;11.40;7.40;;;;;;;16.37;100.00;101065.02;106038;1259;72697;-87
2023/10/14 06:08:20;;;;;;;9.30;7.00;;;;;;;16.64;100.00;101064.20;105758;1263;61365;-88
2023/10/14 06:11:34;;;;;;;9.70;7.10;;;;;;;16.84;100.00;101060.17;105806;1259;61349;-88
2023/10/14 06:14:48;;;;;;;10.40;6.80;;;;;;;17.12;100.00;101060.94;105814;1261;73373;-83
2023/10/14 06:18:04;;;;;;;9.20;6.60;;;;;;;17.33;100.00;101059.92;105781;1265;67284;-87
2023/10/14 06:21:19;;;;;;;11.30;6.40;;;;;;;17.42;100.00;101062.11;105917;1261;71953;-88
2023/10/14 06:24:33;;;;;;;8.10;6.00;;;;;;;17.52;100.00;101054.58;105793;1264;61295;-88
2023/10/14 06:27:48;;;;;;;9.40;5.80;;;;;;;17.68;100.00;101057.86;105874;1260;61395;-87
2023/10/14 06:31:04;;;;;;;8.20;5.40;;;;;;;17.88;100.00;101057.91;107275;1259;74670;-87
2023/10/14 06:34:20;;;;;;;8.30;5.90;;;;;;;18.06;100.00;101052.65;105723;1259;67970;-86
2023/10/14 06:37:41;;;;;;;7.60;5.20;;;;;;;18.17;100.00;101050.58;105890;1261;72672;-86
2023/10/14 06:41:01;;;;;;;6.90;5.20;;;;;;;18.33;100.00;101051.50;105732;1260;61185;-82
2023/10/14 06:43:58;;;;;;;7.10;4.70;;;;;;;18.56;100.00;101051.69;107036;1261;61361;-82
2023/10/14 06:46:26;;;;;;;6.40;4.20;;;;;;;18.72;100.00;101048.56;105754;1259;75749;-82
2023/10/14 06:48:55;;;;;;;5.80;3.70;;;;;;;18.85;100.00;101044.54;105854;1259;70649;-82
2023/10/14 06:51:23;;;;;;;4.90;4.00;;;;;;;18.97;100.00;101040.46;105888;1259;74668;-88
2023/10/14 06:53:51;;;;;;;5.60;3.30;;;;;;;19.15;100.00;101037.67;106639;1259;62686;-82
2023/10/14 06:56:21;;;;;;;3.70;3.30;;;;;;;19.26;100.00;101031.47;105803;1261;61242;-82
2023/10/14 06:58:51;;;;;;;5.20;3.70;;;;;;;19.40;100.00;101032.17;105883;1259;76645;-81
2023/10/14 07:01:21;;;;;;;5.20;3.50;;;;;;;19.51;100.00;101030.48;105787;1259;71099;-81
2023/10/14 07:03:52;;;;;;;4.50;3.00;;;;;;;19.67;100.00;101026.38;105852;1259;74496;-82
2023/10/14 07:06:21;;;;;;;4.80;3.20;;;;;;;19.85;100.00;101021.27;106911;1259;62384;-82
2023/10/14 07:08:50;;;;;;;5.20;3.10;;;;;;;20.01;100.00;101024.75;105802;1263;61936;-82
2023/10/14 07:11:18;;;;;;;3.40;2.90;;;;;;;20.18;100.00;101019.96;105791;1259;74150;-86
2023/10/14 07:13:47;;;;;;;3.50;2.50;;;;;;;20.27;100.00;101013.16;105780;1259;70358;-82
2023/10/14 07:16:16;;;;;;;4.20;2.80;;;;;;;20.50;100.00;101015.58;105838;1260;75773;-82
2023/10/14 07:18:44;;;;;;;3.20;2.30;;;;;;;20.67;100.00;101009.06;106088;1263;61347;-81
2023/10/14 07:21:14;;;;;;;4.40;2.40;;;;;;;20.83;100.00;101004.40;106201;1262;61265;-88
2023/10/14 07:23:44;;;;;;;5.00;2.30;;;;;;;20.91;100.00;101003.86;105807;1261;76414;-88
2023/10/14 07:26:13;;;;;;;3.90;1.90;;;;;;;21.07;100.00;101003.63;105825;1261;69939;-88
2023/10/14 07:28:42;;;;;;;2.30;2.00;;;;;;;21.19;100.00;101004.89;105801;1260;73776;-89
2023/10/14 07:31:12;;;;;;;4.10;2.10;;;;;;;21.31;100.00;101004.95;106442;1259;61169;-83
2023/10/14 07:33:40;;;;;;;2.40;2.20;;;;;;;21.44;100.00;101004.83;106375;1261;61345;-83
2023/10/14 07:36:11;;;;;;;3.80;1.80;;;;;;;21.59;100.00;101001.58;105961;1265;76746;-88
2023/10/14 07:38:42;;;;;;;3.00;1.60;;;;;;;21.74;100.00;100999.27;105998;1263;69638;-88
2023/10/14 07:41:12;;;;;;;3.90;2.20;;;;;;;21.87;100.00;101001.62;106015;1263;74786;-89
2023/10/14 07:43:40;;;;;;;3.10;1.80;;;;;;;22.10;100.00;100999.26;106251;1260;62271;-88
2023/10/14 07:46:08;;;;;;;3.70;1.90;;;;;;;22.27;99.91;101000.59;107104;1260;61270;-86
2023/10/14 07:48:37;;;;;;;3.90;2.20;;;;;;;22.29;98.93;101005.52;105982;1262;75501;-88
2023/10/14 07:51:06;;;;;;;2.70;1.90;;;;;;;22.35;96.51;101002.92;105927;1259;69449;-88
2023/10/14 07:53:54;;;;;;;3.50;2.50;;;;;;;22.47;93.07;101011.27;105948;1259;74997;-88
2023/10/14 07:56:23;;;;;;;5.00;2.90;;;;;;;22.52;89.65;101010.80;105785;1260;61365;-86
2023/10/14 07:58:53;;;;;;;3.70;2.60;;;;;;;22.50;88.79;101011.87;106874;1262;61129;-88
2023/10/14 08:01:23;;;;;;;3.30;2.40;;;;;;;22.50;86.72;101008.77;105959;1259;74649;-87
2023/10/14 08:03:56;;;;;;;4.80;2.80;;;;;;;22.55;87.11;101008.21;105984;1259;68832;-88
2023/10/14 08:06:25;;;;;;;2.90;2.20;;;;;;;22.62;86.83;100999.55;106013;1260;73236;-88
2023/10/14 08:08:53;;;;;;;2.70;2.30;;;;;;;22.77;87.09;100999.05;106893;1259;61269;-88
2023/10/14 08:11:22;;;;;;;3.40;2.40;;;;;;;22.94;86.32;100998.10;105670;1262;61464;-83
2023/10/14 08:13:49;;;;;;;2.70;2.40;;;;;;;23.03;82.54;100994.42;105616;1260;73383;-83
2023/10/14 08:16:18;;;;;;;3.50;2.50;;;;;;;23.03;81.26;100992.42;105763;1262;69451;-83
2023/10/14 08:18:46;;;;;;;5.60;2.90;;;;;;;23.06;80.48;100985.42;106011;1259;72736;-83
2023/10/14 08:21:14;;;;;;;4.10;2.20;;;;;;;23.13;80.60;100983.64;106361;1260;61417;-87
2023/10/14 08:23:42;;;;;;;3.90;2.70;;;;;;;23.29;80.21;100978.70;107060;1259;61344;-87
2023/10/14 08:26:13;;;;;;;3.50;2.30;;;;;;;23.44;79.87;100976.27;106027;1259;73569;-83
2023/10/14 08:28:42;;;;;;;4.10;2.50;;;;;;;23.81;80.08;100966.34;105956;1259;68590;-83
2023/10/14 08:31:11;;;;;;;4.30;2.60;;;;;;;24.16;75.04;100966.57;105779;1259;72672;-83
2023/10/14 08:33:40;;;;;;;6.20;2.80;;;;;;;24.31;70.71;100962.15;105732;1262;62129;-83
2023/10/14 08:36:13;;;;;;;3.40;2.40;;;;;;;24.29;66.68;100965.53;105942;1264;61224;-83
2023/10/14 08:38:43;;;;;;;4.10;2.50;;;;;;;24.25;66.69;100964.87;106818;1260;74814;-83
2023/10/14 08:41:14;;;;;;;4.20;2.50;;;;;;;24.31;66.12;100956.47;105784;1264;67093;-83
2023/10/14 08:43:49;;;;;;;4.00;2.40;;;;;;;24.31;64.66;100955.85;105848;1259;74354;-83
2023/10/14 08:46:18;;;;;;;4.30;2.40;;;;;;;24.31;63.56;100952.73;105813;1260;59263;-88
2023/10/14 08:48:50;;;;;;;5.50;2.70;;;;;;;24.32;63.24;100953.88;105972;1259;61144;-83
2023/10/14 08:51:18;;;;;;;5.70;2.50;;;;;;;24.43;61.55;100944.82;106919;1260;74655;-82
2023/10/14 08:53:46;;;;;;;4.20;2.60;;;;;;;24.52;61.82;100943.06;105617;1259;68723;-83
2023/10/14 08:56:14;;;;;;;4.40;2.70;;;;;;;24.65;61.10;100941.99;105708;1264;71380;-83
2023/10/14 08:58:41;;;;;;;4.00;2.50;;;;;;;24.81;59.53;100939.65;105667;1259;61327;-87
2023/10/14 09:01:11;;;;;;;4.30;2.80;;;;;;;24.77;58.89;100936.95;105875;1259;61311;-87
2023/10/14 09:03:39;;;;;;;3.40;2.70;;;;;;;24.81;58.39;100941.41;105839;1259;65751;-87
2023/10/14 09:06:07;;;;;;;3.50;2.90;;;;;;;24.94;57.33;100940.91;106383;1264;67634;-84
2023/10/14 09:08:34;;;;;;;5.60;3.10;;;;;;;24.96;57.88;100933.38;105799;1264;71493;-83
2023/10/14 09:11:03;;;;;;;4.70;3.00;;;;;;;25.02;57.23;100926.47;105818;1259;61363;-83
2023/10/14 09:13:33;;;;;;;5.30;2.70;;;;;;;25.04;56.17;100923.79;105954;1259;61150;-88
2023/10/14 09:16:01;;;;;;;5.80;3.00;;;;;;;25.00;56.11;100922.76;106363;1260;75269;-88
2023/10/14 09:18:30;;;;;;;5.90;3.10;;;;;;;25.01;56.55;100924.70;105639;1266;61365;-87
2023/10/14 09:21:01;;;;;;;3.10;2.80;;;;;;;25.04;56.25;100919.57;105622;1259;71380;-87
2023/10/14 09:23:39;;;;;;;4.80;2.60;;;;;;;25.14;55.16;100914.90;105642;1259;61434;-83
2023/10/14 09:26:07;;;;;;;7.10;3.40;;;;;;;25.24;55.02;100915.30;105613;1259;61308;-83
2023/10/14 09:28:40;;;;;;;5.00;3.30;;;;;;;25.24;55.76;100908.52;106758;1259;64526;-83
2023/10/14 09:31:09;;;;;;;5.20;3.00;;;;;;;25.33;56.24;100905.89;106210;1263;61272;-83
2023/10/14 09:33:41;;;;;;;4.70;2.80;;;;;;;25.46;55.14;100900.79;106756;1259;72661;-88
2023/10/14 09:36:18;;;;;;;5.20;3.20;;;;;;;25.54;53.57;100889.84;105649;1259;61245;-88
2023/10/14 09:38:50;;;;;;;6.20;3.50;;;;;;;25.56;53.38;100884.36;105796;1264;59419;-83
2023/10/14 09:41:17;;;;;;;6.40;3.30;;;;;;;25.54;53.18;100883.84;107106;1261;64446;-83
2023/10/14 09:43:48;;;;;;;4.10;2.80;;;;;;;25.54;53.38;100881.99;105981;1260;61324;-83
2023/10/14 09:46:17;;;;;;;4.60;2.80;;;;;;;25.60;52.89;100878.59;105761;1260;62508;-83
2023/10/14 09:48:45;;;;;;;2.80;2.30;;;;;;;25.74;50.71;100876.46;105734;1260;61449;-88
2023/10/14 09:51:15;;;;;;;4.90;2.10;;;;;;;25.92;47.64;100869.98;105847;1262;61426;-87
2023/10/14 09:53:46;;;;;;;2.20;2.00;;;;;;;25.99;45.34;100867.70;106064;1260;64569;-83
2023/10/14 09:56:13;;;;;;;2.60;2.00;;;;;;;26.07;45.27;100860.17;105736;1259;61262;-84
2023/10/14 09:58:51;;;;;;;2.90;2.20;;;;;;;26.16;44.56;100858.30;105698;1262;63804;-84
2023/10/14 10:01:19;;;;;;;2.90;2.30;;;;;;;26.24;43.55;100862.91;105648;1267;61358;-84
2023/10/14 10:03:48;;;;;;;4.80;1.90;;;;;;;26.30;43.25;100863.80;105671;1259;61386;-88
2023/10/14 10:06:38;;;;;;;3.10;1.70;;;;;;;26.37;42.52;100855.11;106205;1264;66267;-87
2023/10/14 10:09:34;;;;;;;2.90;1.90;;;;;;;26.48;42.41;100846.88;105789;1262;61379;-83
2023/10/14 10:12:08;;;;;;;3.30;2.00;;;;;;;26.63;42.01;100848.54;105751;1262;63849;-82
2023/10/14 10:14:42;;;;;;;4.70;2.20;;;;;;;26.71;41.74;100845.69;105803;1265;61388;-86
2023/10/14 10:17:11;;;;;;;3.90;2.10;;;;;;;26.73;41.64;100839.23;105719;1259;61321;-86
2023/10/14 10:19:57;;;;;;;3.80;2.00;;;;;;;26.69;40.84;100834.45;105768;1261;67957;-86
2023/10/14 10:22:50;;;;;;;3.60;2.00;;;;;;;26.65;40.91;100828.46;106611;1262;61222;-87
2023/10/14 10:25:21;;;;;;;3.30;1.90;;;;;;;26.59;40.44;100817.25;105665;1259;63766;-83
2023/10/14 10:27:55;;;;;;;4.20;1.90;;;;;;;26.63;40.33;100817.88;105790;1262;61339;-83
2023/10/14 10:30:24;;;;;;;3.60;2.10;;;;;;;26.68;40.05;100823.30;105711;1262;61341;-83
2023/10/14 10:32:52;;;;;;;3.90;2.20;;;;;;;26.71;39.96;100820.78;106443;1259;64478;-88
2023/10/14 10:35:20;;;;;;;3.90;2.30;;;;;;;26.73;39.68;100818.64;106150;1263;61249;-89
2023/10/14 10:37:52;;;;;;;3.10;2.20;;;;;;;26.74;39.58;100812.80;105844;1263;62513;-88
2023/10/14 10:40:25;;;;;;;3.00;2.30;;;;;;;26.73;39.67;100811.10;105603;1262;61350;-87
2023/10/14 10:43:06;;;;;;;5.60;2.80;;;;;;;26.72;39.92;100807.65;105801;1259;61248;-87
2023/10/14 10:45:34;;;;;;;4.00;2.30;;;;;;;26.70;40.07;100805.87;106424;1259;65808;-88
2023/10/14 10:48:23;;;;;;;5.20;2.20;;;;;;;26.66;40.20;100803.27;105960;1265;61341;-87
2023/10/14 10:50:51;;;;;;;4.60;2.20;;;;;;;26.58;40.63;100796.98;106051;1265;62467;-87
2023/10/14 10:53:19;;;;;;;3.00;2.20;;;;;;;26.57;40.95;100792.42;105793;1260;61186;-88
2023/10/14 10:55:48;;;;;;;5.10;2.30;;;;;;;26.66;41.10;100788.20;105687;1262;61856;-86
2023/10/14 10:58:16;;;;;;;4.50;2.00;;;;;;;26.71;41.08;100783.94;105690;1259;65885;-87
2023/10/14 11:00:45;;;;;;;4.00;2.30;;;;;;;26.74;41.18;100777.26;106742;1260;61814;-86
2023/10/14 11:03:14;;;;;;;3.20;2.40;;;;;;;26.80;41.30;100774.29;105899;1264;62491;-87
2023/10/14 11:05:46;;;;;;;5.20;2.50;;;;;;;26.81;40.90;100775.56;105911;1259;61320;-87
2023/10/14 11:08:17;;;;;;;3.30;2.40;;;;;;;26.74;41.23;100772.05;105913;1265;61264;-87
2023/10/14 11:10:45;;;;;;;3.40;2.50;;;;;;;26.74;41.38;100766.27;106095;1259;65717;-88
2023/10/14 11:13:13;;;;;;;3.20;2.30;;;;;;;26.75;41.44;100764.29;106306;1262;61338;-87
2023/10/14 11:15:43;;;;;;;3.70;2.50;;;;;;;26.74;41.69;100763.08;105989;1259;63773;-88
2023/10/14 11:18:13;;;;;;;4.60;2.10;;;;;;;26.77;41.53;100763.58;105880;1263;61276;-87
2023/10/14 11:21:01;;;;;;;4.20;2.40;;;;;;;26.75;41.31;100762.77;105859;1259;61421;-87
2023/10/14 11:23:28;;;;;;;3.20;2.40;;;;;;;26.76;41.09;100759.98;105756;1263;66206;-88
2023/10/14 14:44:42;;;;;;;6.00;3.00;;;;;;;24.40;50.96;100531.67;105882;1262;74686;-92
2023/10/14 14:47:12;;;;;;;5.20;2.50;;;;;;;24.33;51.29;100528.65;105909;1260;68447;-93
2023/10/14 14:49:43;;;;;;;5.00;2.40;;;;;;;24.32;51.48;100528.23;105977;1261;71786;-92
2023/10/14 14:52:11;;;;;;;4.50;2.90;;;;;;;24.22;52.05;100527.88;106020;1263;61259;-92
2023/10/14 14:54:41;;;;;;;4.40;2.50;;;;;;;24.13;52.34;100527.72;106176;1263;61307;-89
2023/10/14 14:57:09;;;;;;;5.50;3.00;;;;;;;24.04;52.70;100525.57;106215;1260;75245;-89
2023/10/14 14:59:37;;;;;;;5.20;2.90;;;;;;;23.98;52.94;100526.95;105902;1262;68367;-90
2023/10/14 15:02:05;;;;;;;5.60;2.80;;;;;;;23.95;53.09;100530.66;105979;1263;73021;-90
2023/10/14 15:04:33;;;;;;;7.00;3.00;;;;;;;23.92;53.34;100532.11;106145;1264;61384;-90
2023/10/14 15:07:01;;;;;;;6.40;3.00;;;;;;;23.88;53.52;100527.80;105780;1265;61292;-89
2023/10/14 15:09:29;;;;;;;4.20;2.70;;;;;;;23.74;54.22;100524.77;105948;1265;75158;-89
2023/10/14 15:11:59;;;;;;;2.90;2.40;;;;;;;23.68;54.64;100523.52;105879;1264;67269;-88
2023/10/14 15:14:29;;;;;;;5.60;2.50;;;;;;;23.67;54.44;100521.44;106015;1261;72702;-89
2023/10/14 15:16:56;;;;;;;5.60;2.40;;;;;;;23.65;54.67;100522.59;105941;1264;62458;-89
2023/10/14 15:19:25;;;;;;;5.30;2.90;;;;;;;23.57;54.98;100527.28;105792;1265;61364;-89
2023/10/14 15:21:53;;;;;;;3.50;2.60;;;;;;;23.31;56.12;100525.52;105972;1265;74038;-88
2023/10/14 15:24:21;;;;;;;5.70;2.90;;;;;;;23.20;57.13;100525.91;106003;1262;68795;-89
2023/10/14 15:26:49;;;;;;;7.10;3.00;;;;;;;23.05;57.89;100526.45;105952;1264;72457;-91
2023/10/14 15:29:17;;;;;;;9.10;3.90;;;;;;;22.97;58.37;100522.27;105834;1266;61370;-90
2023/10/14 15:31:44;;;;;;;7.30;3.30;;;;;;;22.89;58.92;100518.08;106148;1263;61259;-89
2023/10/14 15:34:16;;;;;;;7.40;3.80;;;;;;;22.91;58.97;100515.02;106297;1260;74668;-90
2023/10/14 15:36:44;;;;;;;5.20;3.10;;;;;;;22.87;59.48;100512.92;106049;1259;68432;-91
2023/10/14 15:39:15;;;;;;;6.20;3.40;;;;;;;22.82;59.75;100511.84;105934;1261;72991;-90
2023/10/14 15:41:45;;;;;;;7.80;3.60;;;;;;;22.76;60.50;100516.64;105994;1260;61292;-91
2023/10/14 15:44:13;;;;;;;5.60;3.60;;;;;;;22.75;60.78;100520.11;105916;1264;61364;-90
2023/10/14 15:46:41;;;;;;;6.90;3.40;;;;;;;22.71;61.06;100520.81;105904;1260;74033;-90
2023/10/14 15:49:09;;;;;;;8.50;4.30;;;;;;;22.66;61.58;100515.21;105976;1265;67852;-90
2023/10/14 15:51:38;;;;;;;8.10;4.80;;;;;;;22.60;62.30;100512.19;106236;1261;72690;-86